Wednesday, February 22, 2017, 12:28 PM EST
Back to Local

KMTP, Montauk Airport

Location: Montauk, NY, United States Lat: 41.067
Local Time: 12:28 PM EST (17:28 GMT) Lon: -71.917
Time Zone: US/Eastern Elev: 6 ft

Show me the last for .
Show Coded

Time T Td Feel RH Dir Speed Gust Alt SLP Vis Weather Sky Remarks
2017-02-22 10:54 48 39 45 70 250° 6 - 30.02 30.02 0 None
2017-02-22 09:54 47 37 44 68 240° 7 - 30.04 30.04 0 None
2017-02-22 08:54 46 39 44 76 240° 5 - 30.06 30.06 0 None
2017-02-22 07:54 44 39 40 82 220° 7 - 30.07 30.06 0 None
2017-02-22 06:54 43 39 39 85 230° 7 - 30.07 30.07 0 6-hr Min Temp (7am): 41.0°F
6-hr Max Temp (7am): 43.0°F
2017-02-22 05:54 43 40 39 88 210° 6 - 30.07 30.06 0 None
2017-02-22 04:54 43 39 38 85 200° 8 - 30.07 30.07 0 None
2017-02-22 03:54 43 38 41 82 Variable 3 - 30.09 30.09 0 None
2017-02-22 02:54 42 38 39 85 210° 5 - 30.10 30.09 0 None
2017-02-22 01:54 42 37 38 82 210° 6 - 30.11 30.10 0 None
2017-02-22 00:54 41 37 37 85 200° 6 - 30.12 30.12 0 6-hr Min Temp (1am): 39.9°F
6-hr Max Temp (1am): 41.0°F
2017-02-21 23:54 41 35 37 79 200° 6 - 30.15 30.14 0 24-hr Min Temp (12am): 34.0°F
24-hr Max Temp (12am): 43.0°F
2017-02-21 22:54 40 35 37 82 210° 5 - 30.18 30.18 0 None
2017-02-21 21:54 41 35 38 79 210° 5 - 30.20 30.20 0 None
2017-02-21 20:54 40 34 36 79 180° 6 - 30.21 30.20 0 None
2017-02-21 19:54 40 33 37 76 190° 5 - 30.24 30.24 0 None
2017-02-21 18:54 40 32 36 73 180° 6 - 30.23 30.23 0 6-hr Min Temp (7pm): 39.9°F
6-hr Max Temp (7pm): 43.0°F
2017-02-21 17:54 40 31 38 69 Variable 3 - 30.26 30.26 0 None
2017-02-21 16:54 40 29 36 64 180° 6 - 30.26 30.26 0 None
2017-02-21 15:54 40 30 36 67 170° 6 - 30.28 30.27 0 None
2017-02-21 14:54 42 31 40 64 150° 3 - 30.29 30.29 0 None
2017-02-21 13:54 41 30 38 64 Variable 5 - 30.31 30.31 0 None
2017-02-21 12:54 42 29 40 59 Variable 3 - 30.32 30.32 0 6-hr Min Temp (1pm): 34.0°F
6-hr Max Temp (1pm): 43.0°F

Support USWX by starting your Amazon purchase here.